Time;durP1;ratioP1;P1;durP2;ratioP2;P2;SDS_P1;SDS_P2;PMS_P1;PMS_P2;Temp;Humidity;BMP_temperature;BMP_pressure;BME280_temperature;BME280_humidity;BME280_pressure;Samples;Min_cycle;Max_cycle;Signal;HPM_P1;HPM_P2
2022/08/16 00:02:55;;;;;;;1999.90;999.90;;;;;;;17.62;86.45;98542.41;9993030;23;20054;-77
2022/08/16 00:06:57;;;;;;;1999.90;999.90;;;;;;;17.62;86.52;98542.41;10022173;23;20023;-76
2022/08/16 00:10:58;;;;;;;1999.90;999.90;;;;;;;17.63;86.63;98538.00;10022822;23;20033;-77
2022/08/16 00:15:04;;;;;;;1999.90;999.90;;;;;;;17.68;86.51;98542.13;9973700;23;20087;-77
2022/08/16 00:19:14;;;;;;;1999.90;999.90;;;;;;;17.65;86.53;98542.25;9994061;23;20045;-76
2022/08/16 00:23:15;;;;;;;1999.90;999.90;;;;;;;17.63;86.56;98553.75;10017409;23;20018;-77
2022/08/16 00:27:17;;;;;;;1999.90;999.90;;;;;;;17.56;86.67;98553.16;10018616;23;20145;-76
2022/08/16 00:31:18;;;;;;;1999.90;999.90;;;;;;;17.46;87.00;98560.63;9986603;23;20022;-76
2022/08/16 00:35:29;;;;;;;1999.90;999.90;;;;;;;17.41;87.96;98565.22;10020200;23;20703;-76
2022/08/16 00:39:35;;;;;;;1999.90;999.90;;;;;;;17.38;88.12;98556.63;10021644;23;20414;-76
2022/08/16 00:43:39;;;;;;;1999.90;999.90;;;;;;;17.45;88.10;98563.31;9996535;23;20809;-75
2022/08/16 00:47:46;;;;;;;1999.90;999.90;;;;;;;17.39;88.13;98560.97;9992540;23;20031;-76
2022/08/16 00:51:51;;;;;;;1999.90;999.90;;;;;;;17.44;88.28;98566.88;9997709;23;20023;-76
2022/08/16 00:56:00;;;;;;;1999.90;999.90;;;;;;;17.46;87.80;98573.75;10023528;23;20058;-76
2022/08/16 01:00:07;;;;;;;1999.90;999.90;;;;;;;17.42;87.91;98564.31;10033146;23;20746;-76
2022/08/16 01:04:10;;;;;;;1999.90;999.90;;;;;;;17.42;88.01;98561.69;10019805;23;20106;-76
2022/08/16 01:08:34;;;;;;;1999.90;999.90;;;;;;;17.42;87.68;98551.19;9995792;23;20062;-76
2022/08/16 01:12:37;;;;;;;1999.90;999.90;;;;;;;17.39;87.76;98547.84;9996909;23;20046;-75
2022/08/16 01:16:40;;;;;;;1999.90;999.90;;;;;;;17.38;87.80;98549.63;10018615;23;20129;-76
2022/08/16 01:20:49;;;;;;;1999.90;999.90;;;;;;;17.33;88.02;98551.59;10000129;23;20097;-76
2022/08/16 01:24:55;;;;;;;1999.90;999.90;;;;;;;17.27;88.49;98549.25;10023679;23;20379;-76
2022/08/16 01:29:01;;;;;;;1999.90;999.90;;;;;;;17.29;88.15;98547.41;9999269;23;20034;-76
2022/08/16 01:33:06;;;;;;;1999.90;999.90;;;;;;;17.31;88.11;98545.56;9994282;23;20820;-76
2022/08/16 01:37:15;;;;;;;1999.90;999.90;;;;;;;17.24;88.25;98553.81;10039039;23;20152;-76
2022/08/16 01:41:20;;;;;;;1999.90;999.90;;;;;;;17.22;88.24;98557.31;9975640;23;20366;-76
2022/08/16 01:45:24;;;;;;;1999.90;999.90;;;;;;;17.24;88.37;98559.06;9993858;23;20515;-76
2022/08/16 01:49:41;;;;;;;1999.90;999.90;;;;;;;17.18;88.53;98561.00;9977596;23;20089;-76
2022/08/16 01:54:04;;;;;;;1999.90;999.90;;;;;;;17.13;89.02;98557.75;9997014;23;20194;-76
2022/08/16 01:58:05;;;;;;;1999.90;999.90;;;;;;;17.14;88.84;98563.84;10024099;23;20886;-76
2022/08/16 02:02:11;;;;;;;1999.90;999.90;;;;;;;17.10;88.61;98557.88;9998505;23;20049;-76
2022/08/16 02:06:27;;;;;;;1999.90;999.90;;;;;;;17.10;88.95;98555.25;10004317;23;20037;-76
2022/08/16 02:10:38;;;;;;;1999.90;999.90;;;;;;;17.04;88.89;98550.25;10029540;23;20023;-76
2022/08/16 02:14:42;;;;;;;1999.90;999.90;;;;;;;17.05;88.81;98548.50;10028228;23;20572;-76
2022/08/16 02:18:44;;;;;;;1999.90;999.90;;;;;;;17.05;88.62;98549.34;10025270;23;20743;-76
2022/08/16 02:22:46;;;;;;;1999.90;999.90;;;;;;;17.01;88.86;98546.94;10043967;23;20493;-76
2022/08/16 02:26:50;;;;;;;1999.90;999.90;;;;;;;16.97;88.86;98551.47;10046412;23;20541;-76
2022/08/16 02:30:54;;;;;;;1999.90;999.90;;;;;;;16.90;88.32;98556.13;10025303;23;20511;-76
2022/08/16 02:34:55;;;;;;;1999.90;999.90;;;;;;;16.86;88.77;98562.41;10003587;23;20022;-76
2022/08/16 02:38:57;;;;;;;1999.90;999.90;;;;;;;16.85;89.13;98570.34;10029449;23;20105;-76
2022/08/16 02:42:59;;;;;;;1999.90;999.90;;;;;;;16.82;89.61;98560.84;10003879;23;20042;-76
2022/08/16 02:47:03;;;;;;;1999.90;999.90;;;;;;;16.72;90.41;98558.69;10024108;23;20275;-76
2022/08/16 02:51:06;;;;;;;1999.90;999.90;;;;;;;16.72;90.76;98558.69;10028312;23;20065;-76
2022/08/16 02:55:12;;;;;;;1999.90;999.90;;;;;;;16.73;90.82;98563.03;10050108;23;20018;-76
2022/08/16 02:59:16;;;;;;;1999.90;999.90;;;;;;;16.74;90.51;98555.09;10027921;23;20054;-76
2022/08/16 03:03:20;;;;;;;1999.90;999.90;;;;;;;16.73;89.87;98556.00;10025427;23;20030;-76
2022/08/16 03:07:21;;;;;;;;;;;;;;;16.71;89.57;98547.38;10024295;23;20026;-76
2022/08/16 03:11:30;;;;;;;1999.90;999.90;;;;;;;16.66;89.46;98556.28;10044245;23;19921;-76
2022/08/16 03:15:35;;;;;;;1999.90;999.90;;;;;;;16.65;89.17;98557.19;10019399;23;20030;-76
2022/08/16 03:19:37;;;;;;;1999.90;999.90;;;;;;;16.60;89.57;98539.06;9998164;23;20023;-76
2022/08/16 03:23:56;;;;;;;1999.90;999.90;;;;;;;16.55;89.39;98539.25;10000038;23;20027;-76
2022/08/16 03:27:58;;;;;;;1999.90;999.90;;;;;;;16.49;89.59;98547.34;10022538;23;20018;-76
2022/08/16 03:32:02;;;;;;;1999.90;999.90;;;;;;;16.45;89.43;98545.78;10017825;23;20465;-76
2022/08/16 03:36:05;;;;;;;1999.90;999.90;;;;;;;16.37;89.47;98545.28;10021620;23;20046;-76
2022/08/16 03:40:28;;;;;;;;;;;;;;;16.24;90.10;98533.59;10022734;23;20027;-76
2022/08/16 03:44:33;;;;;;;1999.90;999.90;;;;;;;16.19;90.35;98544.25;10021838;23;19925;-76
2022/08/16 03:48:49;;;;;;;1999.90;999.90;;;;;;;16.13;90.81;98548.88;9998150;23;20051;-77
2022/08/16 03:52:51;;;;;;;1999.90;999.90;;;;;;;16.09;90.56;98547.28;10022957;23;20027;-77
2022/08/16 03:57:00;;;;;;;1999.90;999.90;;;;;;;16.07;90.59;98547.38;10040106;23;20241;-77
2022/08/16 04:01:03;;;;;;;1999.90;999.90;;;;;;;16.05;90.64;98545.72;10024079;23;20027;-77
2022/08/16 04:05:05;;;;;;;1999.90;999.90;;;;;;;16.01;90.91;98545.84;10022279;23;20019;-77
2022/08/16 04:09:08;;;;;;;1999.90;999.90;;;;;;;16.01;90.87;98548.47;10023015;23;20023;-77
2022/08/16 04:13:13;;;;;;;1999.90;999.90;;;;;;;15.98;90.74;98543.34;10023926;23;20023;-77
2022/08/16 04:17:35;;;;;;;1999.90;999.90;;;;;;;15.97;90.90;98553.88;10024423;23;20113;-77
2022/08/16 04:21:37;;;;;;;1999.90;999.90;;;;;;;15.95;90.65;98553.94;10027785;23;20085;-77
2022/08/16 04:25:49;;;;;;;1999.90;999.90;;;;;;;15.96;91.05;98565.25;10026851;23;20026;-77
2022/08/16 04:29:54;;;;;;;1999.90;999.90;;;;;;;15.95;90.68;98574.88;10027114;23;20054;-77
2022/08/16 04:34:03;;;;;;;1999.90;999.90;;;;;;;15.93;90.74;98561.00;10025470;23;20741;-77
2022/08/16 04:38:09;;;;;;;1999.90;999.90;;;;;;;15.98;90.87;98572.16;10024437;23;20027;-76
2022/08/16 04:42:21;;;;;;;1999.90;999.90;;;;;;;16.00;91.10;98574.72;9978162;23;20022;-77
2022/08/16 04:46:28;;;;;;;1999.90;999.90;;;;;;;16.05;91.48;98567.53;10019920;23;20040;-77
2022/08/16 04:50:49;;;;;;;1999.90;999.90;;;;;;;16.12;91.68;98565.50;10024382;23;20480;-77
2022/08/16 04:54:51;;;;;;;1999.90;999.90;;;;;;;16.16;91.60;98564.50;9999451;23;20019;-77
2022/08/16 04:58:52;;;;;;;1999.90;999.90;;;;;;;16.10;91.19;98562.94;10024413;23;20022;-77
2022/08/16 05:03:09;;;;;;;1999.90;999.90;;;;;;;16.00;91.78;98578.19;10020364;23;20105;-77
2022/08/16 05:07:12;;;;;;;1999.90;999.90;;;;;;;16.04;92.59;98571.06;9977571;23;20085;-77
2022/08/16 05:11:21;;;;;;;1999.90;999.90;;;;;;;16.14;92.61;98564.53;10026306;23;20031;-77
2022/08/16 05:15:23;;;;;;;;;;;;;;;16.23;92.47;98571.16;9996144;23;20127;-77
2022/08/16 05:19:25;;;;;;;1999.90;999.90;;;;;;;16.24;91.89;98575.50;10000963;23;19922;-77
2022/08/16 05:23:36;;;;;;;1999.90;999.90;;;;;;;16.35;92.42;98562.81;10024235;23;20014;-77
2022/08/16 05:27:39;;;;;;;1999.90;999.90;;;;;;;16.49;92.11;98591.91;10041530;23;20076;-77
2022/08/16 05:31:43;;;;;;;1999.90;999.90;;;;;;;16.57;91.96;98599.47;9995094;23;20026;-77
2022/08/16 05:35:53;;;;;;;1999.90;999.90;;;;;;;16.76;91.87;98591.72;10008830;23;20577;-77
2022/08/16 05:39:56;;;;;;;1999.90;999.90;;;;;;;16.95;91.30;98594.41;10041247;23;20437;-77
2022/08/16 05:43:59;;;;;;;1999.90;999.90;;;;;;;17.11;90.74;98601.56;10063901;23;20541;-77
2022/08/16 05:48:05;;;;;;;1999.90;999.90;;;;;;;17.84;87.92;98597.44;10021094;23;20031;-77
2022/08/16 05:52:08;;;;;;;1999.90;999.90;;;;;;;18.48;84.67;98588.22;10025111;23;20093;-76
2022/08/16 05:56:13;;;;;;;1999.90;999.90;;;;;;;18.89;82.50;98601.97;10001078;23;20030;-76
2022/08/16 06:00:20;;;;;;;1999.90;999.90;;;;;;;19.11;81.58;98605.22;10000903;23;20030;-76
2022/08/16 06:04:23;;;;;;;1999.90;999.90;;;;;;;19.31;80.67;98599.75;10000602;23;20383;-76
2022/08/16 06:08:38;;;;;;;1999.90;999.90;;;;;;;19.56;79.24;98609.84;10039296;23;20038;-75
2022/08/16 06:12:45;;;;;;;1999.90;999.90;;;;;;;19.86;78.02;98604.72;10046810;23;20019;-75
2022/08/16 06:16:53;;;;;;;1999.90;999.90;;;;;;;20.25;76.42;98615.78;10020531;23;20070;-77
2022/08/16 06:20:56;;;;;;;1999.90;999.90;;;;;;;20.59;74.92;98620.88;10024004;23;20419;-77
2022/08/16 06:25:00;;;;;;;1999.90;999.90;;;;;;;20.93;75.02;98616.28;10040295;23;20403;-76
2022/08/16 06:29:05;;;;;;;1999.90;999.90;;;;;;;21.29;73.04;98614.09;10023476;23;20030;-75
2022/08/16 06:33:09;;;;;;;1999.90;999.90;;;;;;;21.63;72.03;98606.75;10023566;23;20073;-76
2022/08/16 06:37:13;;;;;;;1999.90;999.90;;;;;;;21.89;70.20;98611.25;9980227;23;20285;-77
2022/08/16 06:41:17;;;;;;;1999.90;999.90;;;;;;;22.17;69.62;98620.13;9971135;23;20027;-77
2022/08/16 06:45:18;;;;;;;1999.90;999.90;;;;;;;22.43;68.41;98618.44;9976189;23;20027;-76
2022/08/16 06:49:20;;;;;;;;;;;;;;;22.64;67.45;98610.91;9955129;23;20086;-77
2022/08/16 06:53:21;;;;;;;1999.90;999.90;;;;;;;22.78;66.58;98608.16;9956460;23;19964;-76
2022/08/16 06:57:23;;;;;;;;;;;;;;;22.96;66.20;98604.31;9956587;23;20034;-76
2022/08/16 07:01:27;;;;;;;1999.90;999.90;;;;;;;23.28;65.73;98611.88;9976451;23;20836;-76
2022/08/16 07:05:49;;;;;;;1999.90;999.90;;;;;;;23.36;63.61;98614.88;9976913;23;20115;-77
2022/08/16 07:09:51;;;;;;;1999.90;999.90;;;;;;;23.40;63.40;98629.59;9994566;23;20022;-76
2022/08/16 07:13:53;;;;;;;1999.90;999.90;;;;;;;23.62;62.79;98632.47;9953678;23;20015;-75
2022/08/16 07:18:16;;;;;;;;;;;;;;;23.95;62.54;98639.88;9949681;23;20123;-74
2022/08/16 07:22:18;;;;;;;1999.90;999.90;;;;;;;24.27;62.05;98631.41;9978919;23;19940;-76
2022/08/16 07:26:39;;;;;;;1999.90;999.90;;;;;;;24.46;59.95;98631.78;9995877;23;20027;-77
2022/08/16 07:30:49;;;;;;;1999.90;999.90;;;;;;;24.73;59.77;98631.53;9988386;23;20094;-75
2022/08/16 07:34:50;;;;;;;1999.90;999.90;;;;;;;24.94;59.41;98634.38;10014871;23;20445;-75
2022/08/16 07:38:52;;;;;;;1999.90;999.90;;;;;;;25.16;58.83;98631.84;10042305;23;20038;-77
2022/08/16 07:42:55;;;;;;;1999.90;999.90;;;;;;;25.23;56.96;98627.75;10027034;23;20522;-76
2022/08/16 07:46:56;;;;;;;1999.90;999.90;;;;;;;25.38;56.75;98632.88;9999999;23;20693;-76
2022/08/16 07:50:58;;;;;;;1999.90;999.90;;;;;;;25.63;56.58;98629.97;10042903;23;20049;-76
2022/08/16 07:55:08;;;;;;;1999.90;999.90;;;;;;;26.01;55.32;98634.97;9979681;23;20015;-76
2022/08/16 07:59:10;;;;;;;1999.90;999.90;;;;;;;26.15;54.65;98634.72;9978402;23;20027;-76
2022/08/16 08:03:13;;;;;;;1999.90;999.90;;;;;;;26.37;54.11;98633.84;9997132;23;20106;-76
2022/08/16 08:07:15;;;;;;;;;;;;;;;26.65;53.36;98637.78;10026897;23;20091;-76
2022/08/16 08:11:17;;;;;;;;;;;;;;;26.71;51.78;98636.41;10002233;23;19957;-76
2022/08/16 08:15:20;;;;;;;1999.90;999.90;;;;;;;26.61;52.31;98633.69;9996779;23;19921;-76
2022/08/16 08:19:26;;;;;;;1999.90;999.90;;;;;;;26.87;52.40;98639.50;10025469;23;20113;-76
2022/08/16 08:23:29;;;;;;;1999.90;999.90;;;;;;;27.13;51.66;98639.19;10042317;23;20114;-76
2022/08/16 08:27:32;;;;;;;1999.90;999.90;;;;;;;27.35;51.12;98636.38;10001319;23;20055;-76
2022/08/16 08:31:35;;;;;;;1999.90;999.90;;;;;;;27.47;50.77;98645.13;10021672;23;20521;-76
2022/08/16 08:35:38;;;;;;;1999.90;999.90;;;;;;;27.51;49.89;98639.41;10005607;23;20084;-76
2022/08/16 08:39:39;;;;;;;1999.90;999.90;;;;;;;27.24;49.11;98649.75;10024760;23;20359;-76
2022/08/16 08:43:56;;;;;;;1999.90;999.90;;;;;;;27.22;49.08;98647.22;10023721;23;20054;-76
2022/08/16 08:47:58;;;;;;;1999.90;999.90;;;;;;;27.37;48.89;98650.41;10048458;23;20071;-76
2022/08/16 08:52:02;;;;;;;;;;;;;;;27.59;49.02;98644.94;10041169;23;20018;-76
2022/08/16 08:56:10;;;;;;;1999.90;999.90;;;;;;;27.92;48.46;98643.00;10025029;23;19928;-76
2022/08/16 09:00:29;;;;;;;1999.90;999.90;;;;;;;28.04;48.04;98644.59;10004125;23;20927;-76
2022/08/16 09:04:31;;;;;;;1999.90;999.90;;;;;;;28.15;47.30;98644.50;10029134;23;20022;-76
2022/08/16 09:08:34;;;;;;;1999.90;999.90;;;;;;;28.26;47.19;98644.41;10050391;23;20019;-76
2022/08/16 09:12:37;;;;;;;1999.90;999.90;;;;;;;28.33;46.30;98638.53;10042491;23;20050;-76
2022/08/16 09:16:39;;;;;;;1999.90;999.90;;;;;;;28.63;45.94;98649.13;10020930;23;20037;-76
2022/08/16 09:21:00;;;;;;;1999.90;999.90;;;;;;;28.80;45.66;98645.75;10025308;23;20038;-76
2022/08/16 09:25:03;;;;;;;1999.90;999.90;;;;;;;28.78;44.40;98655.75;10026338;23;20019;-76
2022/08/16 09:29:11;;;;;;;1999.90;999.90;;;;;;;28.11;45.65;98650.25;10028346;23;20037;-75
2022/08/16 09:33:23;;;;;;;1999.90;999.90;;;;;;;27.58;46.83;98645.06;10021925;23;20023;-74
2022/08/16 09:37:29;;;;;;;1999.90;999.90;;;;;;;27.53;45.45;98650.81;10028537;23;20760;-75
2022/08/16 09:41:37;;;;;;;;;;;;;;;27.66;45.98;98648.81;10044263;23;20426;-77
2022/08/16 09:45:42;;;;;;;1999.90;999.90;;;;;;;27.94;46.54;98646.38;9998825;23;20202;-75
2022/08/16 09:49:44;;;;;;;1999.90;999.90;;;;;;;28.38;44.71;98642.50;10042305;23;20019;-76
2022/08/16 09:53:54;;;;;;;1999.90;999.90;;;;;;;28.59;43.87;98648.56;10041668;23;20019;-75
2022/08/16 09:57:59;;;;;;;1999.90;999.90;;;;;;;28.38;44.32;98642.50;10000870;23;20028;-75
2022/08/16 10:02:01;;;;;;;1999.90;999.90;;;;;;;28.61;44.62;98647.59;10000364;23;20034;-75
2022/08/16 10:06:24;;;;;;;1999.90;999.90;;;;;;;28.23;44.25;98636.66;10004925;23;20526;-72
2022/08/16 10:10:34;;;;;;;;;;;;;;;27.97;44.74;98644.28;10019112;23;20101;-76
2022/08/16 10:14:36;;;;;;;1999.90;999.90;;;;;;;28.10;44.56;98638.72;10003214;23;20448;-76
2022/08/16 10:18:37;;;;;;;;;;;;;;;27.83;45.08;98641.13;10016741;23;20047;-76
2022/08/16 10:22:58;;;;;;;1999.90;999.90;;;;;;;28.22;45.12;98647.47;10021893;23;19925;-77
2022/08/16 10:27:08;;;;;;;1999.90;999.90;;;;;;;28.62;43.81;98643.94;10042670;23;20621;-75
2022/08/16 10:31:27;;;;;;;1999.90;999.90;;;;;;;29.06;43.55;98638.03;9998680;23;20034;-77
2022/08/16 10:35:46;;;;;;;1999.90;999.90;;;;;;;29.28;42.44;98644.94;10028713;23;20122;-76
2022/08/16 10:39:52;;;;;;;1999.90;999.90;;;;;;;29.28;41.48;98639.59;10030056;23;20129;-76
2022/08/16 10:43:57;;;;;;;1999.90;999.90;;;;;;;29.25;41.93;98647.88;10051116;23;20022;-76
2022/08/16 10:47:59;;;;;;;1999.90;999.90;;;;;;;29.19;41.38;98653.81;9998158;23;20050;-76
2022/08/16 10:52:03;;;;;;;1999.90;999.90;;;;;;;29.28;41.07;98652.97;10024485;23;20029;-76
2022/08/16 10:56:19;;;;;;;1999.90;999.90;;;;;;;29.64;41.13;98653.19;10024285;23;20497;-76
2022/08/16 11:00:41;;;;;;;1999.90;999.90;;;;;;;29.88;41.20;98655.34;10019676;23;20118;-76
2022/08/16 11:04:46;;;;;;;1999.90;999.90;;;;;;;30.18;40.30;98655.13;10022465;23;20027;-76
2022/08/16 11:09:08;;;;;;;1999.90;999.90;;;;;;;30.51;39.42;98650.13;10023785;23;20023;-76
2022/08/16 11:13:29;;;;;;;1999.90;999.90;;;;;;;30.75;38.00;98646.91;10043541;23;20030;-77
2022/08/16 11:17:53;;;;;;;1999.90;999.90;;;;;;;30.95;37.54;98649.25;10021277;23;20097;-76
2022/08/16 11:22:14;;;;;;;1999.90;999.90;;;;;;;30.59;36.30;98650.22;10024063;23;20066;-76
2022/08/16 11:26:36;;;;;;;1999.90;999.90;;;;;;;29.51;37.51;98645.47;10023965;23;20037;-76
2022/08/16 11:30:38;;;;;;;1999.90;999.90;;;;;;;28.67;38.99;98653.19;9995933;23;20419;-76
2022/08/16 11:34:41;;;;;;;1999.90;999.90;;;;;;;28.65;39.79;98652.50;10024346;23;20065;-76
2022/08/16 11:39:02;;;;;;;;;;;;;;;29.10;39.35;98652.00;10026065;23;20053;-76
2022/08/16 11:43:05;;;;;;;1999.90;999.90;;;;;;;29.50;38.23;98653.66;10024828;23;19925;-76
2022/08/16 11:47:10;;;;;;;1999.90;999.90;;;;;;;29.87;38.88;98640.28;10021412;23;20094;-75
2022/08/16 11:51:12;;;;;;;1999.90;999.90;;;;;;;30.18;38.15;98640.88;10026336;23;20023;-75
2022/08/16 11:55:13;;;;;;;1999.90;999.90;;;;;;;29.86;37.13;98647.47;10040820;23;20026;-76
2022/08/16 11:59:15;;;;;;;1999.90;999.90;;;;;;;30.03;37.42;98640.50;10001034;23;20034;-75
2022/08/16 12:03:17;;;;;;;1999.90;999.90;;;;;;;30.25;36.41;98633.94;10021197;23;20034;-75
2022/08/16 12:07:20;;;;;;;1999.90;999.90;;;;;;;30.62;36.67;98629.34;10000420;23;20142;-75
2022/08/16 12:11:25;;;;;;;1999.90;999.90;;;;;;;30.87;35.37;98627.72;10027146;23;20057;-75
2022/08/16 12:15:27;;;;;;;1999.90;999.90;;;;;;;31.23;34.70;98631.22;9997476;23;20015;-75
2022/08/16 12:19:31;;;;;;;1999.90;999.90;;;;;;;31.37;34.24;98615.56;10028105;23;20477;-75
2022/08/16 12:23:35;;;;;;;1999.90;999.90;;;;;;;31.60;33.92;98619.44;10026788;23;20034;-75
2022/08/16 12:27:37;;;;;;;1999.90;999.90;;;;;;;31.54;32.48;98620.03;10000974;23;20055;-75
2022/08/16 12:31:41;;;;;;;1999.90;999.90;;;;;;;31.43;32.87;98621.16;10020822;23;20027;-75
2022/08/16 12:36:03;;;;;;;1999.90;999.90;;;;;;;31.62;32.68;98622.78;10024480;23;20360;-75
2022/08/16 12:40:14;;;;;;;1999.90;999.90;;;;;;;31.25;32.52;98615.84;10002474;23;20026;-75
2022/08/16 12:44:26;;;;;;;1999.90;999.90;;;;;;;30.69;33.25;98618.84;10027765;23;20410;-75
2022/08/16 12:52:53;;;;;;;;;;;;;;;30.69;34.70;98608.13;10027589;23;20027;-76
2022/08/16 12:56:55;;;;;;;1999.90;999.90;;;;;;;30.43;33.58;98610.69;10025212;23;19932;-75
2022/08/16 13:00:57;;;;;;;1999.90;999.90;;;;;;;30.44;33.98;98608.84;10023056;23;20031;-75
2022/08/16 13:04:59;;;;;;;1999.90;999.90;;;;;;;30.86;33.75;98607.28;10027010;23;20023;-75
2022/08/16 13:09:18;;;;;;;1999.90;999.90;;;;;;;31.32;33.45;98609.84;10005025;23;20094;-75
2022/08/16 13:13:23;;;;;;;1999.90;999.90;;;;;;;31.10;32.98;98609.31;10028134;23;20316;-74
2022/08/16 13:17:25;;;;;;;1999.90;999.90;;;;;;;30.79;34.26;98610.72;10024380;23;20030;-76
2022/08/16 13:21:30;;;;;;;1999.90;999.90;;;;;;;30.09;34.00;98610.47;10028207;23;20085;-75
2022/08/16 13:25:34;;;;;;;1999.90;999.90;;;;;;;30.21;34.66;98600.41;10001770;23;20350;-75
2022/08/16 13:29:35;;;;;;;1999.90;999.90;;;;;;;30.44;33.80;98604.34;10002819;23;20061;-75
2022/08/16 13:33:44;;;;;;;1999.90;999.90;;;;;;;30.86;33.39;98599.22;9996622;23;20731;-75
2022/08/16 13:37:46;;;;;;;1999.90;999.90;;;;;;;31.13;32.58;98605.50;10003354;23;20033;-76
2022/08/16 13:41:48;;;;;;;1999.90;999.90;;;;;;;31.32;32.05;98599.13;10029195;23;20327;-76
2022/08/16 13:45:56;;;;;;;1999.90;999.90;;;;;;;31.63;32.69;98602.16;10003970;23;20466;-75
2022/08/16 13:49:57;;;;;;;1999.90;999.90;;;;;;;31.46;30.41;98594.00;10003739;23;20033;-75
2022/08/16 13:54:01;;;;;;;1999.90;999.90;;;;;;;31.31;32.34;98600.94;10002578;23;20018;-76
2022/08/16 13:58:04;;;;;;;1999.90;999.90;;;;;;;31.25;32.10;98591.72;10018478;23;20359;-76
2022/08/16 14:02:26;;;;;;;1999.90;999.90;;;;;;;31.57;33.04;98595.56;10021782;23;20045;-75
2022/08/16 14:06:28;;;;;;;1999.90;999.90;;;;;;;31.65;31.48;98592.09;10027546;23;20136;-75
2022/08/16 14:10:29;;;;;;;1999.90;999.90;;;;;;;31.71;31.86;98588.75;10028305;23;20316;-75
2022/08/16 14:14:32;;;;;;;1999.90;999.90;;;;;;;31.51;31.52;98585.47;10003063;23;20310;-75
2022/08/16 14:18:33;;;;;;;1999.90;999.90;;;;;;;31.56;30.84;98580.47;10021849;23;20022;-75
2022/08/16 14:22:38;;;;;;;1999.90;999.90;;;;;;;31.48;31.97;98577.75;10027636;23;20121;-75
2022/08/16 14:26:43;;;;;;;1999.90;999.90;;;;;;;31.39;30.74;98571.47;10021986;23;20088;-75
2022/08/16 14:30:44;;;;;;;1999.90;999.90;;;;;;;31.50;32.29;98576.59;10009692;23;20687;-75
2022/08/16 14:34:47;;;;;;;1999.90;999.90;;;;;;;31.44;31.03;98563.81;10026632;23;20019;-75
2022/08/16 14:38:52;;;;;;;1999.90;999.90;;;;;;;31.22;32.01;98572.38;10003173;23;20054;-75
2022/08/16 14:42:54;;;;;;;1999.90;999.90;;;;;;;30.87;32.24;98571.41;10026296;23;20065;-75
2022/08/16 14:46:55;;;;;;;1999.90;999.90;;;;;;;30.46;32.55;98567.50;9997019;23;20034;-75
2022/08/16 14:50:57;;;;;;;1999.90;999.90;;;;;;;30.10;33.22;98574.66;10002513;23;20113;-75
2022/08/16 14:54:58;;;;;;;1999.90;999.90;;;;;;;29.68;33.42;98576.97;10026513;23;20105;-75
2022/08/16 14:59:00;;;;;;;1999.90;999.90;;;;;;;29.39;34.19;98569.00;10002049;23;20039;-75
2022/08/16 15:03:06;;;;;;;1999.90;999.90;;;;;;;29.12;35.87;98570.66;10018495;23;20093;-75
2022/08/16 15:07:11;;;;;;;1999.90;999.90;;;;;;;28.95;37.62;98570.53;10025068;23;20023;-75
2022/08/16 15:11:13;;;;;;;1999.90;999.90;;;;;;;28.82;38.02;98576.13;9975448;23;20479;-75
2022/08/16 15:15:16;;;;;;;1999.90;999.90;;;;;;;28.69;38.86;98568.41;10019594;23;20039;-75
2022/08/16 15:19:20;;;;;;;1999.90;999.90;;;;;;;28.76;39.80;98566.88;10021533;23;20034;-74
2022/08/16 15:23:23;;;;;;;1999.90;999.90;;;;;;;29.19;38.28;98560.22;10023048;23;20026;-75
2022/08/16 15:27:30;;;;;;;1999.90;999.90;;;;;;;29.72;38.12;98556.94;9997155;23;20019;-75
2022/08/16 15:31:36;;;;;;;1999.90;999.90;;;;;;;30.00;34.19;98552.44;10020357;23;20061;-76
2022/08/16 15:35:38;;;;;;;1999.90;999.90;;;;;;;30.23;34.28;98551.03;10023224;23;20023;-75
2022/08/16 15:39:40;;;;;;;1999.90;999.90;;;;;;;30.33;32.69;98554.47;10025035;23;20027;-75
2022/08/16 15:43:48;;;;;;;1999.90;999.90;;;;;;;30.54;33.84;98551.53;9998687;23;20034;-76
2022/08/16 15:48:07;;;;;;;1999.90;999.90;;;;;;;30.66;33.03;98563.72;9995489;23;20086;-75
2022/08/16 15:52:30;;;;;;;1999.90;999.90;;;;;;;30.84;33.16;98557.47;10024257;23;20042;-76
2022/08/16 15:56:34;;;;;;;1999.90;999.90;;;;;;;30.99;33.04;98553.25;9998908;23;20766;-76
2022/08/16 16:00:36;;;;;;;1999.90;999.90;;;;;;;31.16;32.66;98557.72;9999025;23;20066;-76
2022/08/16 16:04:40;;;;;;;1999.90;999.90;;;;;;;31.38;32.48;98563.59;10025207;23;20021;-76
2022/08/16 16:08:43;;;;;;;1999.90;999.90;;;;;;;31.40;31.89;98554.38;10026981;23;20051;-76
2022/08/16 16:12:46;;;;;;;1999.90;999.90;;;;;;;31.41;32.07;98549.84;10003981;23;20027;-76
2022/08/16 16:16:55;;;;;;;1999.90;999.90;;;;;;;31.40;30.89;98551.69;10032916;23;20423;-76
2022/08/16 16:21:05;;;;;;;1999.90;999.90;;;;;;;31.11;31.57;98545.78;10004472;23;20460;-75
2022/08/16 16:25:06;;;;;;;1999.90;999.90;;;;;;;30.85;31.48;98548.44;10002439;23;20466;-76
2022/08/16 16:29:08;;;;;;;1999.90;999.90;;;;;;;30.53;32.27;98541.81;10042049;23;20402;-75
2022/08/16 16:33:22;;;;;;;1999.90;999.90;;;;;;;29.99;33.49;98551.59;9990462;23;20038;-76
2022/08/16 16:37:24;;;;;;;1999.90;999.90;;;;;;;29.61;35.52;98536.56;10002382;23;20019;-76
2022/08/16 16:41:28;;;;;;;1999.90;999.90;;;;;;;29.29;37.12;98544.16;10044061;23;20034;-76
2022/08/16 16:45:31;;;;;;;1999.90;999.90;;;;;;;28.98;37.11;98535.50;9997759;23;20049;-75
2022/08/16 16:49:36;;;;;;;1999.90;999.90;;;;;;;28.72;39.04;98536.06;10028138;23;20388;-76
2022/08/16 16:53:47;;;;;;;1999.90;999.90;;;;;;;28.52;38.78;98539.72;9997475;23;20498;-76
2022/08/16 17:02:29;;;;;;;1999.90;999.90;;;;;;;28.04;40.60;98524.50;9997881;23;20033;-75
2022/08/16 17:06:50;;;;;;;1999.90;999.90;;;;;;;27.82;41.04;98528.22;10027147;23;20018;-75
2022/08/16 17:10:55;;;;;;;1999.90;999.90;;;;;;;27.61;41.44;98528.28;10001972;23;20030;-76
2022/08/16 17:14:57;;;;;;;1999.90;999.90;;;;;;;27.43;41.68;98526.38;9977704;23;20657;-75
2022/08/16 17:19:02;;;;;;;1999.90;999.90;;;;;;;27.30;41.81;98514.13;10026249;23;20081;-75
2022/08/16 17:23:19;;;;;;;1999.90;999.90;;;;;;;27.17;42.88;98524.16;10027302;23;20023;-76
2022/08/16 17:27:41;;;;;;;1999.90;999.90;;;;;;;26.93;43.61;98519.09;10025815;23;20082;-76
2022/08/16 17:31:51;;;;;;;1999.90;999.90;;;;;;;26.87;42.96;98510.75;10021502;23;20031;-76
2022/08/16 17:35:53;;;;;;;1999.90;999.90;;;;;;;26.69;45.49;98515.84;10025849;23;20498;-76
2022/08/16 17:39:59;;;;;;;1999.90;999.90;;;;;;;26.53;46.25;98508.28;9999256;23;20479;-75
2022/08/16 17:44:09;;;;;;;1999.90;999.90;;;;;;;26.39;45.32;98508.59;10000159;23;20030;-75
2022/08/16 17:48:14;;;;;;;1999.90;999.90;;;;;;;26.16;47.65;98513.13;9993600;23;20091;-75
2022/08/16 17:52:18;;;;;;;1999.90;999.90;;;;;;;25.88;47.12;98512.75;10000707;23;20033;-75
2022/08/16 17:56:20;;;;;;;1999.90;999.90;;;;;;;25.74;48.90;98512.16;10039615;23;20106;-75
2022/08/16 18:00:23;;;;;;;1999.90;999.90;;;;;;;25.58;48.37;98512.50;9996553;23;20397;-75
2022/08/16 18:04:25;;;;;;;1999.90;999.90;;;;;;;25.41;50.30;98518.31;10025139;23;20022;-75
2022/08/16 18:08:48;;;;;;;1999.90;999.90;;;;;;;25.16;49.13;98528.22;9999295;23;20457;-75
2022/08/16 18:12:58;;;;;;;1999.90;999.90;;;;;;;24.92;49.37;98519.47;9998467;23;20557;-75
2022/08/16 18:17:01;;;;;;;1999.90;999.90;;;;;;;24.69;51.02;98515.91;10029339;23;20031;-75
2022/08/16 18:25:23;;;;;;;1999.90;999.90;;;;;;;24.40;51.23;98518.09;10025885;23;19921;-75
2022/08/16 18:29:25;;;;;;;1999.90;999.90;;;;;;;24.22;51.71;98519.44;9998927;23;20398;-75